sensor_id;sensor_type;location;lat;lon;timestamp;P1;durP1;ratioP1;P2;durP2;ratioP2
3405;SDS011;10008;48.682;9.016;2022-08-19T00:00:29;22.23;;;17.67;;
3405;SDS011;10008;48.682;9.016;2022-08-19T00:02:56;19.57;;;16.83;;
3405;SDS011;10008;48.682;9.016;2022-08-19T00:05:21;23.63;;;18.03;;
3405;SDS011;10008;48.682;9.016;2022-08-19T00:07:48;21.90;;;18.20;;
3405;SDS011;10008;48.682;9.016;2022-08-19T00:10:15;21.60;;;17.80;;
3405;SDS011;10008;48.682;9.016;2022-08-19T00:12:42;23.67;;;18.40;;
3405;SDS011;10008;48.682;9.016;2022-08-19T00:15:09;20.70;;;17.97;;
3405;SDS011;10008;48.682;9.016;2022-08-19T00:17:40;23.23;;;18.53;;
3405;SDS011;10008;48.682;9.016;2022-08-19T00:20:08;21.37;;;18.77;;
3405;SDS011;10008;48.682;9.016;2022-08-19T00:22:36;21.83;;;19.00;;
3405;SDS011;10008;48.682;9.016;2022-08-19T00:25:03;19.70;;;17.03;;
3405;SDS011;10008;48.682;9.016;2022-08-19T00:27:30;22.23;;;17.60;;
3405;SDS011;10008;48.682;9.016;2022-08-19T00:29:56;22.13;;;18.50;;
3405;SDS011;10008;48.682;9.016;2022-08-19T00:32:24;23.10;;;19.23;;
3405;SDS011;10008;48.682;9.016;2022-08-19T00:34:51;26.30;;;20.53;;
3405;SDS011;10008;48.682;9.016;2022-08-19T00:37:21;24.83;;;20.83;;
3405;SDS011;10008;48.682;9.016;2022-08-19T00:39:48;24.60;;;20.73;;
3405;SDS011;10008;48.682;9.016;2022-08-19T00:42:16;24.57;;;19.63;;
3405;SDS011;10008;48.682;9.016;2022-08-19T00:44:43;24.27;;;19.93;;
3405;SDS011;10008;48.682;9.016;2022-08-19T00:47:09;23.80;;;20.20;;
3405;SDS011;10008;48.682;9.016;2022-08-19T00:49:47;22.53;;;19.30;;
3405;SDS011;10008;48.682;9.016;2022-08-19T00:52:18;23.07;;;18.27;;
3405;SDS011;10008;48.682;9.016;2022-08-19T00:54:47;21.57;;;19.03;;
3405;SDS011;10008;48.682;9.016;2022-08-19T00:57:14;24.27;;;19.50;;
3405;SDS011;10008;48.682;9.016;2022-08-19T00:59:44;24.20;;;19.27;;
3405;SDS011;10008;48.682;9.016;2022-08-19T01:02:13;23.80;;;20.80;;
3405;SDS011;10008;48.682;9.016;2022-08-19T01:04:40;26.83;;;23.37;;
3405;SDS011;10008;48.682;9.016;2022-08-19T01:07:05;24.30;;;21.10;;
3405;SDS011;10008;48.682;9.016;2022-08-19T01:09:33;25.57;;;21.27;;
3405;SDS011;10008;48.682;9.016;2022-08-19T01:11:59;23.53;;;19.17;;
3405;SDS011;10008;48.682;9.016;2022-08-19T01:14:25;24.27;;;21.20;;
3405;SDS011;10008;48.682;9.016;2022-08-19T01:16:51;25.57;;;22.03;;
3405;SDS011;10008;48.682;9.016;2022-08-19T01:19:27;24.07;;;20.93;;
3405;SDS011;10008;48.682;9.016;2022-08-19T01:22:01;25.50;;;21.77;;
3405;SDS011;10008;48.682;9.016;2022-08-19T01:24:30;27.30;;;20.67;;
3405;SDS011;10008;48.682;9.016;2022-08-19T01:26:56;24.70;;;21.20;;
3405;SDS011;10008;48.682;9.016;2022-08-19T01:29:23;25.77;;;22.03;;
3405;SDS011;10008;48.682;9.016;2022-08-19T01:31:48;26.23;;;21.40;;
3405;SDS011;10008;48.682;9.016;2022-08-19T01:34:17;28.50;;;21.93;;
3405;SDS011;10008;48.682;9.016;2022-08-19T01:36:44;25.70;;;21.73;;
3405;SDS011;10008;48.682;9.016;2022-08-19T01:39:30;26.17;;;22.10;;
3405;SDS011;10008;48.682;9.016;2022-08-19T01:41:55;28.77;;;22.90;;
3405;SDS011;10008;48.682;9.016;2022-08-19T01:44:21;26.60;;;22.60;;
3405;SDS011;10008;48.682;9.016;2022-08-19T01:46:49;26.53;;;23.50;;
3405;SDS011;10008;48.682;9.016;2022-08-19T01:49:20;28.60;;;22.87;;
3405;SDS011;10008;48.682;9.016;2022-08-19T01:51:48;28.33;;;22.53;;
3405;SDS011;10008;48.682;9.016;2022-08-19T01:54:15;26.60;;;23.70;;
3405;SDS011;10008;48.682;9.016;2022-08-19T01:56:42;26.67;;;21.93;;
3405;SDS011;10008;48.682;9.016;2022-08-19T01:59:10;27.70;;;23.53;;
3405;SDS011;10008;48.682;9.016;2022-08-19T02:01:40;27.80;;;23.63;;
3405;SDS011;10008;48.682;9.016;2022-08-19T02:04:06;27.50;;;23.70;;
3405;SDS011;10008;48.682;9.016;2022-08-19T02:06:32;30.13;;;24.83;;
3405;SDS011;10008;48.682;9.016;2022-08-19T02:08:58;29.97;;;24.40;;
3405;SDS011;10008;48.682;9.016;2022-08-19T02:11:29;27.90;;;23.83;;
3405;SDS011;10008;48.682;9.016;2022-08-19T02:13:57;29.43;;;24.30;;
3405;SDS011;10008;48.682;9.016;2022-08-19T02:16:23;26.67;;;21.93;;
3405;SDS011;10008;48.682;9.016;2022-08-19T02:18:49;27.40;;;23.30;;
3405;SDS011;10008;48.682;9.016;2022-08-19T02:21:16;26.30;;;22.80;;
3405;SDS011;10008;48.682;9.016;2022-08-19T02:23:44;29.77;;;23.27;;
3405;SDS011;10008;48.682;9.016;2022-08-19T02:26:10;27.20;;;21.90;;
3405;SDS011;10008;48.682;9.016;2022-08-19T02:28:35;27.47;;;23.47;;
3405;SDS011;10008;48.682;9.016;2022-08-19T02:31:02;30.90;;;25.40;;
3405;SDS011;10008;48.682;9.016;2022-08-19T02:33:28;31.47;;;25.80;;
3405;SDS011;10008;48.682;9.016;2022-08-19T02:35:54;30.03;;;23.67;;
3405;SDS011;10008;48.682;9.016;2022-08-19T02:38:20;30.40;;;24.20;;
3405;SDS011;10008;48.682;9.016;2022-08-19T02:40:53;32.40;;;25.40;;
3405;SDS011;10008;48.682;9.016;2022-08-19T02:43:32;28.80;;;24.10;;
3405;SDS011;10008;48.682;9.016;2022-08-19T02:46:18;33.13;;;24.87;;
3405;SDS011;10008;48.682;9.016;2022-08-19T02:48:50;29.10;;;25.03;;
3405;SDS011;10008;48.682;9.016;2022-08-19T02:51:21;30.83;;;25.50;;
3405;SDS011;10008;48.682;9.016;2022-08-19T02:53:48;30.10;;;24.50;;
3405;SDS011;10008;48.682;9.016;2022-08-19T02:56:14;28.40;;;24.70;;
3405;SDS011;10008;48.682;9.016;2022-08-19T02:58:40;30.50;;;24.80;;
3405;SDS011;10008;48.682;9.016;2022-08-19T03:01:08;31.03;;;25.47;;
3405;SDS011;10008;48.682;9.016;2022-08-19T03:03:35;31.73;;;26.23;;
3405;SDS011;10008;48.682;9.016;2022-08-19T03:06:03;29.90;;;25.57;;
3405;SDS011;10008;48.682;9.016;2022-08-19T03:08:30;30.00;;;25.20;;
3405;SDS011;10008;48.682;9.016;2022-08-19T03:10:55;30.77;;;25.90;;
3405;SDS011;10008;48.682;9.016;2022-08-19T03:13:21;29.53;;;25.13;;
3405;SDS011;10008;48.682;9.016;2022-08-19T03:15:48;34.97;;;27.67;;
3405;SDS011;10008;48.682;9.016;2022-08-19T03:18:14;30.97;;;26.80;;
3405;SDS011;10008;48.682;9.016;2022-08-19T03:20:45;36.00;;;27.90;;
3405;SDS011;10008;48.682;9.016;2022-08-19T03:23:12;33.07;;;26.47;;
3405;SDS011;10008;48.682;9.016;2022-08-19T03:25:40;29.87;;;26.03;;
3405;SDS011;10008;48.682;9.016;2022-08-19T03:28:11;33.33;;;28.47;;
3405;SDS011;10008;48.682;9.016;2022-08-19T03:30:38;33.17;;;28.30;;
3405;SDS011;10008;48.682;9.016;2022-08-19T03:33:06;35.93;;;29.27;;
3405;SDS011;10008;48.682;9.016;2022-08-19T03:35:33;33.80;;;28.63;;
3405;SDS011;10008;48.682;9.016;2022-08-19T03:38:02;34.03;;;29.40;;
3405;SDS011;10008;48.682;9.016;2022-08-19T03:40:28;35.77;;;29.77;;
3405;SDS011;10008;48.682;9.016;2022-08-19T03:42:55;34.73;;;29.80;;
3405;SDS011;10008;48.682;9.016;2022-08-19T03:45:22;36.03;;;29.23;;
3405;SDS011;10008;48.682;9.016;2022-08-19T03:47:48;33.87;;;28.67;;
3405;SDS011;10008;48.682;9.016;2022-08-19T03:50:14;36.30;;;30.37;;
3405;SDS011;10008;48.682;9.016;2022-08-19T03:52:41;35.40;;;29.77;;
3405;SDS011;10008;48.682;9.016;2022-08-19T03:55:07;35.87;;;29.77;;
3405;SDS011;10008;48.682;9.016;2022-08-19T03:57:33;36.43;;;29.60;;
3405;SDS011;10008;48.682;9.016;2022-08-19T03:59:59;37.37;;;30.90;;
3405;SDS011;10008;48.682;9.016;2022-08-19T04:02:26;36.00;;;29.47;;
3405;SDS011;10008;48.682;9.016;2022-08-19T04:04:52;35.63;;;28.97;;
3405;SDS011;10008;48.682;9.016;2022-08-19T04:07:22;36.00;;;29.83;;
3405;SDS011;10008;48.682;9.016;2022-08-19T04:09:48;35.40;;;30.60;;
3405;SDS011;10008;48.682;9.016;2022-08-19T04:12:14;33.77;;;29.10;;
3405;SDS011;10008;48.682;9.016;2022-08-19T04:14:40;37.63;;;31.30;;
3405;SDS011;10008;48.682;9.016;2022-08-19T04:17:06;34.87;;;30.10;;
3405;SDS011;10008;48.682;9.016;2022-08-19T04:19:32;33.20;;;28.83;;
3405;SDS011;10008;48.682;9.016;2022-08-19T04:21:59;37.50;;;32.40;;
3405;SDS011;10008;48.682;9.016;2022-08-19T04:24:25;34.63;;;29.40;;
3405;SDS011;10008;48.682;9.016;2022-08-19T04:26:51;37.87;;;31.00;;
3405;SDS011;10008;48.682;9.016;2022-08-19T04:29:18;37.40;;;31.10;;
3405;SDS011;10008;48.682;9.016;2022-08-19T04:31:50;35.80;;;31.20;;
3405;SDS011;10008;48.682;9.016;2022-08-19T04:34:17;34.70;;;30.17;;
3405;SDS011;10008;48.682;9.016;2022-08-19T04:36:47;37.63;;;30.70;;
3405;SDS011;10008;48.682;9.016;2022-08-19T04:39:16;34.63;;;29.40;;
3405;SDS011;10008;48.682;9.016;2022-08-19T04:41:45;40.20;;;32.67;;
3405;SDS011;10008;48.682;9.016;2022-08-19T04:44:33;39.60;;;31.10;;
3405;SDS011;10008;48.682;9.016;2022-08-19T04:47:00;36.10;;;30.07;;
3405;SDS011;10008;48.682;9.016;2022-08-19T04:49:30;37.87;;;30.77;;
3405;SDS011;10008;48.682;9.016;2022-08-19T04:51:56;37.97;;;30.23;;
3405;SDS011;10008;48.682;9.016;2022-08-19T04:54:23;35.17;;;29.50;;
3405;SDS011;10008;48.682;9.016;2022-08-19T04:56:50;34.47;;;30.77;;
3405;SDS011;10008;48.682;9.016;2022-08-19T04:59:19;36.13;;;30.60;;
3405;SDS011;10008;48.682;9.016;2022-08-19T05:01:47;35.10;;;30.13;;
3405;SDS011;10008;48.682;9.016;2022-08-19T05:04:15;36.50;;;30.60;;
3405;SDS011;10008;48.682;9.016;2022-08-19T05:06:44;42.80;;;30.87;;
3405;SDS011;10008;48.682;9.016;2022-08-19T05:09:10;38.33;;;31.10;;
3405;SDS011;10008;48.682;9.016;2022-08-19T05:11:36;40.23;;;31.60;;
3405;SDS011;10008;48.682;9.016;2022-08-19T05:14:04;40.67;;;32.60;;
3405;SDS011;10008;48.682;9.016;2022-08-19T05:16:31;38.27;;;31.10;;
3405;SDS011;10008;48.682;9.016;2022-08-19T05:18:56;40.90;;;31.90;;
3405;SDS011;10008;48.682;9.016;2022-08-19T05:21:41;39.13;;;32.90;;
3405;SDS011;10008;48.682;9.016;2022-08-19T05:24:26;37.67;;;31.37;;
3405;SDS011;10008;48.682;9.016;2022-08-19T05:26:53;40.13;;;32.17;;
3405;SDS011;10008;48.682;9.016;2022-08-19T05:29:25;40.07;;;31.80;;
3405;SDS011;10008;48.682;9.016;2022-08-19T05:31:53;37.67;;;31.00;;
3405;SDS011;10008;48.682;9.016;2022-08-19T05:34:20;39.70;;;31.10;;
3405;SDS011;10008;48.682;9.016;2022-08-19T05:36:50;38.03;;;30.97;;
3405;SDS011;10008;48.682;9.016;2022-08-19T05:39:22;36.17;;;30.70;;
3405;SDS011;10008;48.682;9.016;2022-08-19T05:41:53;36.90;;;31.10;;
3405;SDS011;10008;48.682;9.016;2022-08-19T05:44:23;39.87;;;29.30;;
3405;SDS011;10008;48.682;9.016;2022-08-19T05:46:50;38.70;;;31.23;;
3405;SDS011;10008;48.682;9.016;2022-08-19T05:49:20;35.97;;;30.70;;
3405;SDS011;10008;48.682;9.016;2022-08-19T05:51:47;40.13;;;31.43;;
3405;SDS011;10008;48.682;9.016;2022-08-19T05:54:13;37.07;;;31.13;;
3405;SDS011;10008;48.682;9.016;2022-08-19T05:56:40;39.53;;;32.50;;
3405;SDS011;10008;48.682;9.016;2022-08-19T05:59:07;35.93;;;31.57;;
3405;SDS011;10008;48.682;9.016;2022-08-19T06:01:39;35.00;;;30.10;;
3405;SDS011;10008;48.682;9.016;2022-08-19T06:04:07;34.70;;;30.50;;
3405;SDS011;10008;48.682;9.016;2022-08-19T06:06:34;35.23;;;30.90;;
3405;SDS011;10008;48.682;9.016;2022-08-19T06:09:02;36.93;;;29.90;;
3405;SDS011;10008;48.682;9.016;2022-08-19T06:11:40;37.17;;;30.40;;
3405;SDS011;10008;48.682;9.016;2022-08-19T06:14:13;38.43;;;30.47;;
3405;SDS011;10008;48.682;9.016;2022-08-19T06:16:44;38.47;;;32.10;;
3405;SDS011;10008;48.682;9.016;2022-08-19T06:19:16;33.40;;;29.13;;
3405;SDS011;10008;48.682;9.016;2022-08-19T06:21:46;36.43;;;31.23;;
3405;SDS011;10008;48.682;9.016;2022-08-19T06:24:15;38.80;;;30.30;;
3405;SDS011;10008;48.682;9.016;2022-08-19T06:26:43;33.93;;;30.07;;
3405;SDS011;10008;48.682;9.016;2022-08-19T06:29:11;38.57;;;31.30;;
3405;SDS011;10008;48.682;9.016;2022-08-19T06:31:40;38.87;;;29.50;;
3405;SDS011;10008;48.682;9.016;2022-08-19T06:34:10;35.97;;;30.60;;
3405;SDS011;10008;48.682;9.016;2022-08-19T06:36:40;35.67;;;30.33;;
3405;SDS011;10008;48.682;9.016;2022-08-19T06:39:09;36.00;;;29.93;;
3405;SDS011;10008;48.682;9.016;2022-08-19T06:41:39;37.60;;;30.20;;
3405;SDS011;10008;48.682;9.016;2022-08-19T06:44:13;36.07;;;30.93;;
3405;SDS011;10008;48.682;9.016;2022-08-19T06:46:39;34.43;;;28.80;;
3405;SDS011;10008;48.682;9.016;2022-08-19T06:49:06;34.80;;;29.37;;
3405;SDS011;10008;48.682;9.016;2022-08-19T06:51:35;39.50;;;29.70;;
3405;SDS011;10008;48.682;9.016;2022-08-19T06:54:01;36.60;;;29.30;;
3405;SDS011;10008;48.682;9.016;2022-08-19T06:56:29;39.60;;;29.90;;
3405;SDS011;10008;48.682;9.016;2022-08-19T06:59:03;33.57;;;28.13;;
3405;SDS011;10008;48.682;9.016;2022-08-19T07:01:33;34.50;;;29.17;;
3405;SDS011;10008;48.682;9.016;2022-08-19T07:04:00;33.40;;;28.07;;
3405;SDS011;10008;48.682;9.016;2022-08-19T07:06:27;34.23;;;28.10;;
3405;SDS011;10008;48.682;9.016;2022-08-19T07:08:53;30.60;;;26.83;;
3405;SDS011;10008;48.682;9.016;2022-08-19T07:11:18;33.33;;;27.80;;
3405;SDS011;10008;48.682;9.016;2022-08-19T07:13:44;31.53;;;28.13;;
3405;SDS011;10008;48.682;9.016;2022-08-19T07:16:13;31.67;;;27.63;;
3405;SDS011;10008;48.682;9.016;2022-08-19T07:18:41;30.23;;;26.07;;
3405;SDS011;10008;48.682;9.016;2022-08-19T07:21:11;31.10;;;25.83;;
3405;SDS011;10008;48.682;9.016;2022-08-19T07:23:39;29.80;;;25.50;;
3405;SDS011;10008;48.682;9.016;2022-08-19T07:26:09;36.03;;;25.90;;
3405;SDS011;10008;48.682;9.016;2022-08-19T07:28:41;30.60;;;25.03;;
3405;SDS011;10008;48.682;9.016;2022-08-19T07:31:09;34.00;;;26.63;;
3405;SDS011;10008;48.682;9.016;2022-08-19T07:33:37;30.40;;;24.60;;
3405;SDS011;10008;48.682;9.016;2022-08-19T07:36:04;28.13;;;25.07;;
3405;SDS011;10008;48.682;9.016;2022-08-19T07:38:32;33.10;;;26.23;;
3405;SDS011;10008;48.682;9.016;2022-08-19T07:40:59;30.60;;;25.53;;
3405;SDS011;10008;48.682;9.016;2022-08-19T07:43:25;28.00;;;25.00;;
3405;SDS011;10008;48.682;9.016;2022-08-19T07:45:52;33.93;;;24.73;;
3405;SDS011;10008;48.682;9.016;2022-08-19T07:48:25;29.70;;;25.60;;
3405;SDS011;10008;48.682;9.016;2022-08-19T07:50:56;32.67;;;24.93;;
3405;SDS011;10008;48.682;9.016;2022-08-19T07:53:27;28.27;;;24.67;;
3405;SDS011;10008;48.682;9.016;2022-08-19T07:55:54;31.63;;;25.90;;
3405;SDS011;10008;48.682;9.016;2022-08-19T07:58:21;36.50;;;25.00;;
3405;SDS011;10008;48.682;9.016;2022-08-19T08:00:48;30.17;;;25.97;;
3405;SDS011;10008;48.682;9.016;2022-08-19T08:03:15;27.80;;;24.60;;
3405;SDS011;10008;48.682;9.016;2022-08-19T08:05:44;27.43;;;24.43;;
3405;SDS011;10008;48.682;9.016;2022-08-19T08:08:29;29.83;;;26.57;;
3405;SDS011;10008;48.682;9.016;2022-08-19T08:11:02;29.23;;;23.93;;
3405;SDS011;10008;48.682;9.016;2022-08-19T08:13:28;29.30;;;25.53;;
3405;SDS011;10008;48.682;9.016;2022-08-19T08:15:55;30.83;;;25.30;;
3405;SDS011;10008;48.682;9.016;2022-08-19T08:18:22;32.93;;;25.77;;
3405;SDS011;10008;48.682;9.016;2022-08-19T08:20:49;29.20;;;25.10;;
3405;SDS011;10008;48.682;9.016;2022-08-19T08:23:15;30.97;;;25.97;;
3405;SDS011;10008;48.682;9.016;2022-08-19T08:25:51;32.47;;;26.23;;
3405;SDS011;10008;48.682;9.016;2022-08-19T08:28:19;29.37;;;26.27;;
3405;SDS011;10008;48.682;9.016;2022-08-19T08:30:46;31.50;;;26.63;;
3405;SDS011;10008;48.682;9.016;2022-08-19T08:33:13;31.83;;;25.73;;
3405;SDS011;10008;48.682;9.016;2022-08-19T08:35:46;31.20;;;26.13;;
3405;SDS011;10008;48.682;9.016;2022-08-19T08:38:13;30.67;;;25.73;;
3405;SDS011;10008;48.682;9.016;2022-08-19T08:45:59;29.00;;;24.43;;
3405;SDS011;10008;48.682;9.016;2022-08-19T08:51:12;34.70;;;25.60;;
3405;SDS011;10008;48.682;9.016;2022-08-19T08:53:42;29.83;;;24.23;;
3405;SDS011;10008;48.682;9.016;2022-08-19T08:56:10;30.00;;;23.80;;
3405;SDS011;10008;48.682;9.016;2022-08-19T09:01:29;27.03;;;24.20;;
3405;SDS011;10008;48.682;9.016;2022-08-19T09:03:54;30.10;;;23.83;;
3405;SDS011;10008;48.682;9.016;2022-08-19T09:06:29;25.73;;;22.80;;
3405;SDS011;10008;48.682;9.016;2022-08-19T09:09:22;26.77;;;23.87;;
3405;SDS011;10008;48.682;9.016;2022-08-19T09:12:22;26.50;;;22.40;;
3405;SDS011;10008;48.682;9.016;2022-08-19T09:15:15;26.17;;;22.93;;
3405;SDS011;10008;48.682;9.016;2022-08-19T09:17:46;26.60;;;23.70;;
3405;SDS011;10008;48.682;9.016;2022-08-19T09:22:39;27.60;;;23.40;;
3405;SDS011;10008;48.682;9.016;2022-08-19T09:25:09;28.87;;;24.30;;
3405;SDS011;10008;48.682;9.016;2022-08-19T09:27:37;25.53;;;22.47;;
3405;SDS011;10008;48.682;9.016;2022-08-19T09:30:05;25.90;;;23.10;;
3405;SDS011;10008;48.682;9.016;2022-08-19T09:32:32;29.90;;;22.33;;
3405;SDS011;10008;48.682;9.016;2022-08-19T09:34:58;31.30;;;23.30;;
3405;SDS011;10008;48.682;9.016;2022-08-19T09:37:25;26.47;;;23.57;;
3405;SDS011;10008;48.682;9.016;2022-08-19T09:39:51;25.60;;;22.90;;
3405;SDS011;10008;48.682;9.016;2022-08-19T09:42:17;26.30;;;23.50;;
3405;SDS011;10008;48.682;9.016;2022-08-19T09:44:44;24.63;;;22.03;;
3405;SDS011;10008;48.682;9.016;2022-08-19T09:47:10;25.13;;;22.53;;
3405;SDS011;10008;48.682;9.016;2022-08-19T09:49:38;24.90;;;21.30;;
3405;SDS011;10008;48.682;9.016;2022-08-19T09:52:05;23.70;;;21.17;;
3405;SDS011;10008;48.682;9.016;2022-08-19T09:54:33;24.70;;;22.00;;
3405;SDS011;10008;48.682;9.016;2022-08-19T09:56:59;37.77;;;33.70;;
3405;SDS011;10008;48.682;9.016;2022-08-19T09:59:25;25.83;;;23.17;;
3405;SDS011;10008;48.682;9.016;2022-08-19T10:01:52;26.10;;;22.73;;
3405;SDS011;10008;48.682;9.016;2022-08-19T10:04:18;26.40;;;22.70;;
3405;SDS011;10008;48.682;9.016;2022-08-19T10:06:46;24.27;;;21.70;;
3405;SDS011;10008;48.682;9.016;2022-08-19T10:09:13;26.27;;;22.30;;
3405;SDS011;10008;48.682;9.016;2022-08-19T10:11:41;25.93;;;20.97;;
3405;SDS011;10008;48.682;9.016;2022-08-19T10:14:11;23.93;;;21.33;;
3405;SDS011;10008;48.682;9.016;2022-08-19T10:16:37;22.60;;;20.20;;
3405;SDS011;10008;48.682;9.016;2022-08-19T10:19:04;23.90;;;20.93;;
3405;SDS011;10008;48.682;9.016;2022-08-19T10:21:30;23.00;;;20.50;;
3405;SDS011;10008;48.682;9.016;2022-08-19T10:23:59;24.07;;;20.33;;
3405;SDS011;10008;48.682;9.016;2022-08-19T10:26:29;25.50;;;20.40;;
3405;SDS011;10008;48.682;9.016;2022-08-19T10:28:58;23.77;;;20.20;;
3405;SDS011;10008;48.682;9.016;2022-08-19T10:31:26;27.17;;;21.83;;
3405;SDS011;10008;48.682;9.016;2022-08-19T10:33:54;21.90;;;19.60;;
3405;SDS011;10008;48.682;9.016;2022-08-19T10:36:27;20.27;;;18.23;;
3405;SDS011;10008;48.682;9.016;2022-08-19T10:38:58;20.87;;;17.43;;
3405;SDS011;10008;48.682;9.016;2022-08-19T10:41:28;19.43;;;17.13;;
3405;SDS011;10008;48.682;9.016;2022-08-19T10:43:57;20.60;;;16.20;;
3405;SDS011;10008;48.682;9.016;2022-08-19T10:46:25;17.20;;;15.40;;
3405;SDS011;10008;48.682;9.016;2022-08-19T10:48:53;19.23;;;16.60;;
3405;SDS011;10008;48.682;9.016;2022-08-19T10:51:20;16.90;;;14.83;;
3405;SDS011;10008;48.682;9.016;2022-08-19T10:54:04;17.27;;;14.53;;
3405;SDS011;10008;48.682;9.016;2022-08-19T10:56:31;18.13;;;15.07;;
3405;SDS011;10008;48.682;9.016;2022-08-19T10:59:17;15.70;;;13.80;;
3405;SDS011;10008;48.682;9.016;2022-08-19T11:01:45;14.47;;;12.90;;
3405;SDS011;10008;48.682;9.016;2022-08-19T11:04:12;14.30;;;12.80;;
3405;SDS011;10008;48.682;9.016;2022-08-19T11:06:42;17.30;;;14.20;;
3405;SDS011;10008;48.682;9.016;2022-08-19T11:09:13;15.80;;;14.20;;
3405;SDS011;10008;48.682;9.016;2022-08-19T11:11:40;14.80;;;13.30;;
3405;SDS011;10008;48.682;9.016;2022-08-19T11:14:07;16.83;;;14.43;;
3405;SDS011;10008;48.682;9.016;2022-08-19T11:16:36;19.73;;;15.53;;
3405;SDS011;10008;48.682;9.016;2022-08-19T11:19:03;17.97;;;16.17;;
3405;SDS011;10008;48.682;9.016;2022-08-19T11:21:30;17.40;;;15.53;;
3405;SDS011;10008;48.682;9.016;2022-08-19T11:23:59;17.33;;;15.53;;
3405;SDS011;10008;48.682;9.016;2022-08-19T11:26:27;17.70;;;14.57;;
3405;SDS011;10008;48.682;9.016;2022-08-19T11:28:54;16.67;;;14.80;;
3405;SDS011;10008;48.682;9.016;2022-08-19T11:31:23;16.97;;;14.80;;
3405;SDS011;10008;48.682;9.016;2022-08-19T11:33:51;17.87;;;14.50;;
3405;SDS011;10008;48.682;9.016;2022-08-19T11:36:18;16.47;;;14.77;;
3405;SDS011;10008;48.682;9.016;2022-08-19T11:38:46;16.63;;;14.83;;
3405;SDS011;10008;48.682;9.016;2022-08-19T11:41:16;16.73;;;13.90;;
3405;SDS011;10008;48.682;9.016;2022-08-19T11:43:43;15.57;;;13.73;;
3405;SDS011;10008;48.682;9.016;2022-08-19T11:46:10;16.00;;;12.80;;
3405;SDS011;10008;48.682;9.016;2022-08-19T11:48:38;14.33;;;12.57;;
3405;SDS011;10008;48.682;9.016;2022-08-19T11:51:05;15.07;;;13.27;;
3405;SDS011;10008;48.682;9.016;2022-08-19T11:53:34;15.00;;;13.30;;
3405;SDS011;10008;48.682;9.016;2022-08-19T11:56:01;15.63;;;12.57;;
3405;SDS011;10008;48.682;9.016;2022-08-19T11:58:28;15.00;;;12.60;;
3405;SDS011;10008;48.682;9.016;2022-08-19T12:00:54;15.70;;;13.20;;
3405;SDS011;10008;48.682;9.016;2022-08-19T12:03:20;14.97;;;13.37;;
3405;SDS011;10008;48.682;9.016;2022-08-19T12:05:46;18.00;;;12.77;;
3405;SDS011;10008;48.682;9.016;2022-08-19T12:08:12;21.60;;;19.03;;
3405;SDS011;10008;48.682;9.016;2022-08-19T12:10:38;19.23;;;14.80;;
3405;SDS011;10008;48.682;9.016;2022-08-19T12:13:06;14.90;;;12.10;;
3405;SDS011;10008;48.682;9.016;2022-08-19T12:15:36;18.27;;;14.30;;
3405;SDS011;10008;48.682;9.016;2022-08-19T12:18:05;14.47;;;12.00;;
3405;SDS011;10008;48.682;9.016;2022-08-19T12:20:35;13.17;;;11.13;;
3405;SDS011;10008;48.682;9.016;2022-08-19T12:23:03;13.10;;;11.70;;
3405;SDS011;10008;48.682;9.016;2022-08-19T12:25:29;12.37;;;11.10;;
3405;SDS011;10008;48.682;9.016;2022-08-19T12:27:57;16.30;;;10.40;;
3405;SDS011;10008;48.682;9.016;2022-08-19T12:30:23;14.33;;;10.63;;
3405;SDS011;10008;48.682;9.016;2022-08-19T12:32:49;12.50;;;10.33;;
3405;SDS011;10008;48.682;9.016;2022-08-19T12:35:16;13.60;;;10.60;;
3405;SDS011;10008;48.682;9.016;2022-08-19T12:37:45;11.97;;;10.77;;
3405;SDS011;10008;48.682;9.016;2022-08-19T12:40:11;15.50;;;10.90;;
3405;SDS011;10008;48.682;9.016;2022-08-19T12:42:38;10.53;;;9.43;;
3405;SDS011;10008;48.682;9.016;2022-08-19T12:45:07;12.07;;;9.97;;
3405;SDS011;10008;48.682;9.016;2022-08-19T12:47:37;11.20;;;9.43;;
3405;SDS011;10008;48.682;9.016;2022-08-19T12:50:03;10.60;;;8.90;;
3405;SDS011;10008;48.682;9.016;2022-08-19T12:52:31;11.73;;;9.40;;
3405;SDS011;10008;48.682;9.016;2022-08-19T12:54:57;10.73;;;9.63;;
3405;SDS011;10008;48.682;9.016;2022-08-19T12:57:23;10.43;;;9.10;;
3405;SDS011;10008;48.682;9.016;2022-08-19T12:59:54;12.03;;;9.03;;
3405;SDS011;10008;48.682;9.016;2022-08-19T13:02:19;13.70;;;9.80;;
3405;SDS011;10008;48.682;9.016;2022-08-19T13:04:46;12.60;;;10.00;;
3405;SDS011;10008;48.682;9.016;2022-08-19T13:07:12;11.27;;;9.33;;
3405;SDS011;10008;48.682;9.016;2022-08-19T13:09:38;10.90;;;9.80;;
3405;SDS011;10008;48.682;9.016;2022-08-19T13:12:06;10.90;;;9.73;;
3405;SDS011;10008;48.682;9.016;2022-08-19T13:14:34;12.00;;;10.10;;
3405;SDS011;10008;48.682;9.016;2022-08-19T13:17:00;11.97;;;9.83;;
3405;SDS011;10008;48.682;9.016;2022-08-19T13:19:26;11.93;;;10.33;;
3405;SDS011;10008;48.682;9.016;2022-08-19T13:21:52;17.70;;;16.00;;
3405;SDS011;10008;48.682;9.016;2022-08-19T13:24:20;10.23;;;9.23;;
3405;SDS011;10008;48.682;9.016;2022-08-19T13:26:46;12.13;;;9.23;;
3405;SDS011;10008;48.682;9.016;2022-08-19T13:29:13;10.70;;;9.60;;
3405;SDS011;10008;48.682;9.016;2022-08-19T13:31:57;10.13;;;9.13;;
3405;SDS011;10008;48.682;9.016;2022-08-19T13:34:42;11.43;;;9.30;;
3405;SDS011;10008;48.682;9.016;2022-08-19T13:37:08;13.40;;;9.73;;
3405;SDS011;10008;48.682;9.016;2022-08-19T13:39:34;10.80;;;8.87;;
3405;SDS011;10008;48.682;9.016;2022-08-19T13:42:00;10.23;;;9.20;;
3405;SDS011;10008;48.682;9.016;2022-08-19T13:44:27;13.07;;;10.37;;
3405;SDS011;10008;48.682;9.016;2022-08-19T13:47:00;13.73;;;10.77;;
3405;SDS011;10008;48.682;9.016;2022-08-19T13:49:30;15.17;;;11.47;;
3405;SDS011;10008;48.682;9.016;2022-08-19T13:51:56;15.93;;;12.57;;
3405;SDS011;10008;48.682;9.016;2022-08-19T13:54:22;15.30;;;12.77;;
3405;SDS011;10008;48.682;9.016;2022-08-19T13:56:48;14.90;;;11.70;;
3405;SDS011;10008;48.682;9.016;2022-08-19T13:59:14;16.50;;;12.47;;
3405;SDS011;10008;48.682;9.016;2022-08-19T14:01:40;15.03;;;11.67;;
3405;SDS011;10008;48.682;9.016;2022-08-19T14:04:07;13.80;;;12.17;;
3405;SDS011;10008;48.682;9.016;2022-08-19T14:06:33;14.07;;;12.57;;
3405;SDS011;10008;48.682;9.016;2022-08-19T14:08:59;17.27;;;13.10;;
3405;SDS011;10008;48.682;9.016;2022-08-19T14:11:27;14.43;;;13.03;;
3405;SDS011;10008;48.682;9.016;2022-08-19T14:13:54;14.40;;;12.97;;
3405;SDS011;10008;48.682;9.016;2022-08-19T14:16:19;13.83;;;11.67;;
3405;SDS011;10008;48.682;9.016;2022-08-19T14:18:46;13.80;;;11.90;;
3405;SDS011;10008;48.682;9.016;2022-08-19T14:21:30;13.20;;;11.87;;
3405;SDS011;10008;48.682;9.016;2022-08-19T14:23:56;12.73;;;11.43;;
3405;SDS011;10008;48.682;9.016;2022-08-19T14:26:22;12.90;;;11.60;;
3405;SDS011;10008;48.682;9.016;2022-08-19T14:28:48;13.60;;;11.63;;
3405;SDS011;10008;48.682;9.016;2022-08-19T14:31:15;13.37;;;11.97;;
3405;SDS011;10008;48.682;9.016;2022-08-19T14:33:44;13.20;;;11.80;;
3405;SDS011;10008;48.682;9.016;2022-08-19T14:36:11;12.50;;;11.20;;
3405;SDS011;10008;48.682;9.016;2022-08-19T14:38:36;13.07;;;11.77;;
3405;SDS011;10008;48.682;9.016;2022-08-19T14:41:07;17.27;;;11.77;;
3405;SDS011;10008;48.682;9.016;2022-08-19T14:43:36;12.60;;;11.40;;
3405;SDS011;10008;48.682;9.016;2022-08-19T14:46:02;14.57;;;11.20;;
3405;SDS011;10008;48.682;9.016;2022-08-19T14:48:28;12.43;;;11.20;;
3405;SDS011;10008;48.682;9.016;2022-08-19T14:50:54;12.30;;;11.20;;
3405;SDS011;10008;48.682;9.016;2022-08-19T14:53:19;12.73;;;11.37;;
3405;SDS011;10008;48.682;9.016;2022-08-19T14:55:46;13.33;;;11.93;;